createdAt,value
2018-12-07T00:01:53.690Z,94.12
2018-12-07T00:04:27.597Z,94.73
2018-12-07T00:07:00.618Z,94.90
2018-12-07T00:09:35.625Z,94.91
2018-12-07T00:12:10.605Z,94.89
2018-12-07T00:14:43.590Z,94.58
2018-12-07T00:17:16.801Z,94.13
2018-12-07T00:19:52.509Z,93.67
2018-12-07T00:22:25.535Z,93.09
2018-12-07T00:25:00.952Z,92.96
2018-12-07T00:27:34.607Z,93.19
2018-12-07T00:30:07.720Z,93.15
2018-12-07T00:32:46.105Z,92.72
2018-12-07T00:35:19.081Z,92.42
2018-12-07T00:37:52.091Z,92.13
2018-12-07T00:40:25.687Z,91.96
2018-12-07T00:42:59.757Z,90.93
2018-12-07T00:45:32.904Z,90.59
2018-12-07T00:48:10.279Z,90.38
2018-12-07T00:50:43.365Z,90.26
2018-12-07T00:53:18.627Z,90.30
2018-12-07T00:55:52.005Z,90.15
2018-12-07T00:58:25.017Z,89.75
2018-12-07T01:00:57.975Z,89.19
2018-12-07T01:03:31.027Z,88.80
2018-12-07T01:06:05.043Z,88.55
2018-12-07T01:08:39.605Z,88.56
2018-12-07T01:11:12.593Z,88.55
2018-12-07T01:13:45.857Z,88.61
2018-12-07T01:16:21.397Z,88.63
2018-12-07T01:18:55.614Z,89.07
2018-12-07T01:21:28.889Z,89.85
2018-12-07T01:24:02.444Z,90.54
2018-12-07T01:26:35.443Z,90.85
2018-12-07T01:29:08.457Z,91.49
2018-12-07T01:31:42.057Z,92.15
2018-12-07T01:34:15.480Z,92.69
2018-12-07T01:36:48.606Z,93.07
2018-12-07T01:39:24.078Z,93.47
2018-12-07T01:41:57.484Z,93.69
2018-12-07T01:44:30.605Z,93.71
2018-12-07T01:47:04.517Z,94.54
2018-12-07T01:49:37.715Z,95.01
2018-12-07T01:52:10.800Z,95.24
2018-12-07T01:54:44.855Z,95.64
2018-12-07T01:57:17.827Z,95.98
2018-12-07T01:59:50.841Z,96.33
2018-12-07T02:02:24.185Z,96.45
2018-12-07T02:04:57.213Z,96.73
2018-12-07T02:07:36.269Z,97.21
2018-12-07T02:10:14.500Z,97.33
2018-12-07T02:12:47.412Z,97.72
2018-12-07T02:15:21.441Z,98.16
2018-12-07T02:17:55.685Z,98.38
2018-12-07T02:20:28.511Z,98.67
2018-12-07T02:23:02.200Z,99.17
2018-12-07T02:25:35.641Z,99.68
2018-12-07T02:28:08.595Z,100.00
2018-12-07T02:30:42.370Z,100.00
2018-12-07T02:33:16.511Z,100.00
2018-12-07T02:35:49.532Z,100.00
2018-12-07T02:38:22.526Z,100.00
2018-12-07T02:40:55.936Z,100.00
2018-12-07T02:43:28.837Z,100.00
2018-12-07T02:46:03.178Z,100.00
2018-12-07T02:48:36.675Z,100.00
2018-12-07T02:51:09.528Z,100.00
2018-12-07T02:53:42.479Z,100.00
2018-12-07T02:56:15.880Z,100.00
2018-12-07T02:58:48.817Z,100.00
2018-12-07T03:01:21.642Z,100.00
2018-12-07T03:03:55.934Z,100.00
2018-12-07T03:06:29.148Z,100.00
2018-12-07T03:09:02.658Z,100.00
2018-12-07T03:11:37.152Z,100.00
2018-12-07T03:14:10.141Z,100.00
2018-12-07T03:16:43.337Z,100.00
2018-12-07T03:19:16.982Z,100.00
2018-12-07T03:21:49.811Z,100.00
2018-12-07T03:24:22.898Z,100.00
2018-12-07T03:26:56.225Z,100.00
2018-12-07T03:29:29.501Z,100.00
2018-12-07T03:32:02.378Z,100.00
2018-12-07T03:34:35.704Z,100.00
2018-12-07T03:37:08.853Z,100.00
2018-12-07T03:39:42.074Z,100.00
2018-12-07T03:42:15.580Z,100.00
2018-12-07T03:44:48.558Z,100.00
2018-12-07T03:47:21.536Z,100.00
2018-12-07T03:49:54.982Z,100.00
2018-12-07T03:52:28.207Z,100.00
2018-12-07T03:55:01.438Z,100.00
2018-12-07T03:57:34.885Z,100.00
2018-12-07T04:00:08.613Z,100.00
2018-12-07T04:02:49.095Z,100.00
2018-12-07T04:05:23.427Z,100.00
2018-12-07T04:07:56.700Z,100.00
2018-12-07T04:10:30.136Z,100.00
2018-12-07T04:13:03.058Z,100.00
2018-12-07T04:15:36.132Z,100.00
2018-12-07T04:18:09.471Z,100.00
2018-12-07T04:20:42.513Z,100.00
2018-12-07T04:23:15.494Z,100.00
2018-12-07T04:25:49.918Z,100.00
2018-12-07T04:28:22.874Z,100.00
2018-12-07T04:30:55.930Z,100.00
2018-12-07T04:33:29.522Z,100.00
2018-12-07T04:36:07.359Z,100.00
2018-12-07T04:38:40.982Z,100.00
2018-12-07T04:41:16.644Z,100.00
2018-12-07T04:43:49.626Z,100.00
2018-12-07T04:46:23.565Z,100.00
2018-12-07T04:48:58.071Z,100.00
2018-12-07T04:51:31.052Z,100.00
2018-12-07T04:54:04.052Z,100.00
2018-12-07T04:56:37.621Z,100.00
2018-12-07T04:59:11.569Z,100.00
2018-12-07T05:01:47.203Z,100.00
2018-12-07T05:04:20.473Z,100.00
2018-12-07T05:06:53.391Z,100.00
2018-12-07T05:09:26.722Z,100.00
2018-12-07T05:12:01.650Z,100.00
2018-12-07T05:14:34.703Z,100.00
2018-12-07T05:17:08.658Z,100.00
2018-12-07T05:19:41.963Z,100.00
2018-12-07T05:22:15.016Z,100.00
2018-12-07T05:24:47.975Z,100.00
2018-12-07T05:27:21.557Z,100.00
2018-12-07T05:29:55.138Z,100.00
2018-12-07T05:32:29.578Z,100.00
2018-12-07T05:35:03.115Z,100.00
2018-12-07T05:37:37.524Z,100.00
2018-12-07T05:40:10.379Z,100.00
2018-12-07T05:42:43.818Z,100.00
2018-12-07T05:45:18.904Z,100.00
2018-12-07T05:47:51.841Z,100.00
2018-12-07T05:50:26.189Z,100.00
2018-12-07T05:53:00.275Z,100.00
2018-12-07T05:55:33.290Z,100.00
2018-12-07T05:58:06.861Z,100.00
2018-12-07T06:00:41.127Z,100.00
2018-12-07T06:03:14.241Z,100.00
2018-12-07T06:05:47.268Z,100.00
2018-12-07T06:08:20.341Z,100.00
2018-12-07T06:10:55.345Z,100.00
2018-12-07T06:13:30.085Z,100.00
2018-12-07T06:16:03.179Z,100.00
2018-12-07T06:18:36.270Z,100.00
2018-12-07T06:21:10.296Z,100.00
2018-12-07T06:23:43.258Z,100.00
2018-12-07T06:26:16.268Z,100.00
2018-12-07T06:28:50.630Z,100.00
2018-12-07T06:31:23.673Z,100.00
2018-12-07T06:34:00.389Z,100.00
2018-12-07T06:36:33.817Z,100.00
2018-12-07T06:39:11.097Z,100.00
2018-12-07T06:41:45.024Z,100.00
2018-12-07T06:44:18.669Z,100.00
2018-12-07T06:46:53.077Z,100.00
2018-12-07T06:49:26.904Z,100.00
2018-12-07T06:52:00.275Z,100.00
2018-12-07T06:54:33.225Z,100.00
2018-12-07T06:57:06.861Z,100.00
2018-12-07T06:59:40.653Z,100.00
2018-12-07T07:02:14.598Z,100.00
2018-12-07T07:04:48.010Z,100.00
2018-12-07T07:07:21.620Z,100.00
2018-12-07T07:09:54.636Z,100.00
2018-12-07T07:12:30.621Z,100.00
2018-12-07T07:15:05.141Z,100.00
2018-12-07T07:17:38.722Z,100.00
2018-12-07T07:20:13.187Z,100.00
2018-12-07T07:22:46.148Z,100.00
2018-12-07T07:25:19.125Z,100.00
2018-12-07T07:27:55.417Z,100.00
2018-12-07T07:30:28.354Z,100.00
2018-12-07T07:33:01.349Z,100.00
2018-12-07T07:35:36.726Z,100.00
2018-12-07T07:38:09.627Z,100.00
2018-12-07T07:40:43.578Z,100.00
2018-12-07T07:43:18.050Z,100.00
2018-12-07T07:45:50.996Z,100.00
2018-12-07T07:48:24.007Z,100.00
2018-12-07T07:50:57.637Z,100.00
2018-12-07T07:53:30.639Z,100.00
2018-12-07T07:56:04.718Z,100.00
2018-12-07T07:58:38.978Z,100.00
2018-12-07T08:01:11.988Z,100.00
2018-12-07T08:03:45.153Z,100.00
2018-12-07T08:06:18.564Z,100.00
2018-12-07T08:08:52.474Z,100.00
2018-12-07T08:11:25.344Z,100.00
2018-12-07T08:14:06.798Z,100.00
2018-12-07T08:16:43.266Z,100.00
2018-12-07T08:19:19.458Z,100.00
2018-12-07T08:21:56.123Z,100.00
2018-12-07T08:24:37.752Z,100.00
2018-12-07T08:27:30.574Z,100.00
2018-12-07T08:30:13.988Z,100.00
2018-12-07T08:32:48.775Z,100.00
2018-12-07T08:35:25.361Z,100.00
2018-12-07T08:38:02.601Z,100.00
2018-12-07T08:40:51.292Z,100.00
2018-12-07T08:43:29.262Z,100.00
2018-12-07T08:46:13.717Z,100.00
2018-12-07T08:48:50.244Z,100.00
2018-12-07T08:51:32.469Z,100.00
2018-12-07T08:54:20.314Z,100.00
2018-12-07T08:56:57.979Z,100.00
2018-12-07T08:59:34.154Z,100.00
2018-12-07T09:02:08.388Z,100.00
2018-12-07T09:04:41.540Z,100.00
2018-12-07T09:07:14.565Z,100.00
2018-12-07T09:09:59.536Z,100.00
2018-12-07T09:12:35.112Z,100.00
2018-12-07T09:15:13.938Z,100.00
2018-12-07T09:17:49.590Z,100.00
2018-12-07T09:20:23.425Z,100.00
2018-12-07T09:22:57.658Z,100.00
2018-12-07T09:25:32.109Z,100.00
2018-12-07T09:28:06.306Z,100.00
2018-12-07T09:30:39.261Z,100.00
2018-12-07T09:33:12.304Z,100.00
2018-12-07T09:35:45.234Z,100.00
2018-12-07T09:38:18.157Z,100.00
2018-12-07T09:40:51.861Z,100.00
2018-12-07T09:43:24.900Z,100.00
2018-12-07T09:46:08.881Z,100.00
2018-12-07T09:48:42.466Z,100.00
2018-12-07T09:51:18.896Z,100.00
2018-12-07T09:53:52.613Z,100.00
2018-12-07T09:56:27.552Z,100.00
2018-12-07T09:59:01.163Z,100.00
2018-12-07T10:01:39.512Z,100.00
2018-12-07T10:04:13.381Z,100.00
2018-12-07T10:06:46.363Z,100.00
2018-12-07T10:09:23.162Z,100.00
2018-12-07T10:11:56.118Z,100.00
2018-12-07T10:14:29.185Z,100.00
2018-12-07T10:17:05.652Z,100.00
2018-12-07T10:19:40.782Z,100.00
2018-12-07T10:22:16.097Z,100.00
2018-12-07T10:24:49.475Z,100.00
2018-12-07T10:27:22.452Z,99.96
2018-12-07T10:29:57.018Z,99.54
2018-12-07T10:32:33.860Z,99.43
2018-12-07T10:35:07.893Z,99.40
2018-12-07T10:37:42.375Z,99.16
2018-12-07T10:40:18.445Z,99.08
2018-12-07T10:42:51.554Z,99.08
2018-12-07T10:45:25.201Z,98.96
2018-12-07T10:48:00.993Z,98.74
2018-12-07T10:50:34.245Z,98.50
2018-12-07T10:53:07.166Z,97.98
2018-12-07T10:55:40.668Z,97.84
2018-12-07T10:58:14.045Z,97.40
2018-12-07T11:00:53.344Z,97.05
2018-12-07T11:03:32.875Z,96.80
2018-12-07T11:06:30.157Z,96.76
2018-12-07T11:09:22.251Z,96.33
2018-12-07T11:12:04.377Z,96.15
2018-12-07T11:14:43.713Z,96.20
2018-12-07T11:17:23.357Z,96.19
2018-12-07T11:20:02.636Z,95.77
2018-12-07T11:22:45.574Z,95.66
2018-12-07T11:25:24.036Z,95.07
2018-12-07T11:28:03.185Z,95.05
2018-12-07T11:30:41.510Z,94.76
2018-12-07T11:33:21.220Z,94.31
2018-12-07T11:35:54.320Z,93.94
2018-12-07T11:38:27.850Z,93.70
2018-12-07T11:41:02.068Z,93.42
2018-12-07T11:43:36.188Z,93.16
2018-12-07T11:46:09.709Z,93.34
2018-12-07T11:48:44.774Z,92.60
2018-12-07T11:51:19.296Z,92.46
2018-12-07T11:53:53.514Z,92.42
2018-12-07T11:56:26.369Z,92.49
2018-12-07T11:59:00.332Z,92.03
2018-12-07T12:01:35.655Z,91.85
2018-12-07T12:04:09.893Z,91.30
2018-12-07T12:06:43.746Z,90.83
2018-12-07T12:09:20.044Z,90.74
2018-12-07T12:11:53.716Z,90.51
2018-12-07T12:14:29.892Z,90.07
2018-12-07T12:17:04.502Z,90.26
2018-12-07T12:19:39.734Z,89.93
2018-12-07T12:22:21.230Z,89.21
2018-12-07T12:24:57.521Z,89.00
2018-12-07T12:27:31.476Z,88.78
2018-12-07T12:30:07.734Z,88.89
2018-12-07T12:32:43.766Z,88.68
2018-12-07T12:35:21.488Z,88.34
2018-12-07T12:37:55.561Z,87.93
2018-12-07T12:40:30.333Z,87.70
2018-12-07T12:43:08.366Z,87.50
2018-12-07T12:45:42.597Z,87.79
2018-12-07T12:48:15.663Z,87.36
2018-12-07T12:50:50.664Z,86.70
2018-12-07T12:53:23.645Z,86.11
2018-12-07T12:56:07.622Z,86.20
2018-12-07T12:58:52.014Z,86.00
2018-12-07T13:01:27.343Z,85.56
2018-12-07T13:04:01.794Z,85.42
2018-12-07T13:06:35.982Z,84.84
2018-12-07T13:09:11.615Z,84.65
2018-12-07T13:11:49.530Z,84.74
2018-12-07T13:14:23.062Z,84.23
2018-12-07T13:16:57.109Z,83.94
2018-12-07T13:19:30.544Z,83.53
2018-12-07T13:22:04.529Z,82.87
2018-12-07T13:24:37.394Z,82.48
2018-12-07T13:27:27.724Z,82.28
2018-12-07T13:30:04.435Z,82.08
2018-12-07T13:32:39.704Z,81.97
2018-12-07T13:35:13.644Z,81.61
2018-12-07T13:37:51.670Z,81.15
2018-12-07T13:40:24.833Z,80.85
2018-12-07T13:43:02.556Z,81.22
2018-12-07T13:45:39.265Z,81.41
2018-12-07T13:48:14.583Z,81.15
2018-12-07T13:50:51.105Z,81.25
2018-12-07T13:53:27.783Z,81.09
2018-12-07T13:56:01.984Z,80.61
2018-12-07T13:58:37.470Z,80.75
2018-12-07T14:01:12.626Z,80.61
2018-12-07T14:03:48.532Z,80.50
2018-12-07T14:06:24.746Z,80.56
2018-12-07T14:08:58.546Z,81.36
2018-12-07T14:11:32.794Z,82.10
2018-12-07T14:14:07.609Z,82.74
2018-12-07T14:16:43.228Z,83.64
2018-12-07T14:19:17.355Z,84.13
2018-12-07T14:21:51.425Z,84.06
2018-12-07T14:24:29.617Z,84.09
2018-12-07T14:27:04.424Z,82.51
2018-12-07T14:29:40.557Z,81.96
2018-12-07T14:32:14.180Z,81.82
2018-12-07T14:34:49.140Z,81.68
2018-12-07T14:37:22.227Z,81.65
2018-12-07T14:39:55.635Z,81.28
2018-12-07T14:42:33.374Z,82.51
2018-12-07T14:45:10.255Z,84.13
2018-12-07T14:47:46.598Z,84.88
2018-12-07T14:50:19.872Z,85.05
2018-12-07T14:52:53.264Z,84.74
2018-12-07T14:55:27.872Z,84.65
2018-12-07T14:58:01.840Z,84.54
2018-12-07T15:00:37.886Z,84.47
2018-12-07T15:03:11.968Z,83.85
2018-12-07T15:05:46.023Z,84.11
2018-12-07T15:08:19.148Z,84.13
2018-12-07T15:10:52.969Z,84.31
2018-12-07T15:13:26.941Z,84.49
2018-12-07T15:16:00.983Z,84.77
2018-12-07T15:18:36.363Z,85.09
2018-12-07T15:21:10.573Z,85.70
2018-12-07T15:23:46.093Z,86.43
2018-12-07T15:26:22.091Z,87.88
2018-12-07T15:28:56.262Z,88.43
2018-12-07T15:31:31.765Z,88.99
2018-12-07T15:34:06.765Z,89.80
2018-12-07T15:36:40.472Z,90.04
2018-12-07T15:39:15.700Z,90.59
2018-12-07T15:41:50.344Z,91.15
2018-12-07T15:44:25.966Z,92.31
2018-12-07T15:47:00.069Z,92.77
2018-12-07T15:49:34.539Z,93.19
2018-12-07T15:52:09.338Z,93.37
2018-12-07T15:54:42.591Z,93.93
2018-12-07T15:57:15.782Z,94.61
2018-12-07T15:59:51.362Z,94.65
2018-12-07T16:02:26.280Z,95.14
2018-12-07T16:04:59.887Z,95.54
2018-12-07T16:07:38.730Z,95.92
2018-12-07T16:10:15.382Z,96.13
2018-12-07T16:12:48.282Z,96.46
2018-12-07T16:15:22.511Z,97.02
2018-12-07T16:17:56.358Z,97.34
2018-12-07T16:20:31.203Z,97.79
2018-12-07T16:23:04.531Z,97.89
2018-12-07T16:25:39.458Z,97.92
2018-12-07T16:28:12.553Z,98.05
2018-12-07T16:30:46.604Z,97.92
2018-12-07T16:33:20.512Z,98.00
2018-12-07T16:35:53.919Z,97.99
2018-12-07T16:38:28.668Z,97.97
2018-12-07T16:41:03.039Z,98.15
2018-12-07T16:43:37.650Z,98.31
2018-12-07T16:46:11.482Z,98.47
2018-12-07T16:48:48.042Z,98.69
2018-12-07T16:51:22.994Z,98.70
2018-12-07T16:53:59.543Z,98.77
2018-12-07T16:56:32.959Z,98.73
2018-12-07T16:59:07.188Z,98.83
2018-12-07T17:01:40.665Z,99.10
2018-12-07T17:04:16.248Z,99.31
2018-12-07T17:06:52.835Z,99.32
2018-12-07T17:09:26.267Z,99.59
2018-12-07T17:12:00.293Z,99.70
2018-12-07T17:14:35.266Z,99.82
2018-12-07T17:17:09.801Z,99.97
2018-12-07T17:19:47.240Z,99.95
2018-12-07T17:22:25.298Z,99.98
2018-12-07T17:25:00.918Z,100.00
2018-12-07T17:27:35.870Z,100.00
2018-12-07T17:30:13.516Z,100.00
2018-12-07T17:32:50.740Z,100.00
2018-12-07T17:35:25.066Z,100.00
2018-12-07T17:38:00.156Z,100.00
2018-12-07T17:40:37.931Z,99.80
2018-12-07T17:43:11.496Z,99.68
2018-12-07T17:45:47.582Z,99.75
2018-12-07T17:48:21.721Z,99.70
2018-12-07T17:50:55.538Z,98.66
2018-12-07T17:53:29.981Z,98.64
2018-12-07T17:56:06.326Z,99.03
2018-12-07T17:58:41.541Z,99.14
2018-12-07T18:01:14.592Z,99.08
2018-12-07T18:03:51.039Z,99.39
2018-12-07T18:06:26.766Z,99.67
2018-12-07T18:09:04.025Z,99.94
2018-12-07T18:11:37.837Z,100.00
2018-12-07T18:14:13.218Z,100.00
2018-12-07T18:16:47.016Z,100.00
2018-12-07T18:19:21.559Z,100.00
2018-12-07T18:21:56.366Z,99.51
2018-12-07T18:24:30.047Z,98.92
2018-12-07T18:27:06.239Z,97.99
2018-12-07T18:29:40.510Z,97.15
2018-12-07T18:32:15.063Z,97.00
2018-12-07T18:34:48.344Z,96.73
2018-12-07T18:37:21.390Z,96.40
2018-12-07T18:39:56.826Z,94.98
2018-12-07T18:42:31.334Z,94.32
2018-12-07T18:45:08.292Z,94.58
2018-12-07T18:47:42.440Z,94.92
2018-12-07T18:50:16.597Z,95.26
2018-12-07T18:52:51.438Z,95.76
2018-12-07T18:55:26.435Z,96.35
2018-12-07T18:58:06.041Z,96.78
2018-12-07T19:00:43.243Z,96.92
2018-12-07T19:03:19.104Z,96.27
2018-12-07T19:05:53.056Z,96.11
2018-12-07T19:08:26.293Z,95.69
2018-12-07T19:11:04.030Z,95.20
2018-12-07T19:13:40.518Z,94.84
2018-12-07T19:16:14.583Z,93.43
2018-12-07T19:18:51.094Z,92.72
2018-12-07T19:21:30.317Z,92.92
2018-12-07T19:24:05.326Z,93.27
2018-12-07T19:26:42.403Z,94.17
2018-12-07T19:29:15.529Z,94.29
2018-12-07T19:31:50.408Z,94.91
2018-12-07T19:34:28.747Z,95.89
2018-12-07T19:37:03.837Z,96.41
2018-12-07T19:39:42.820Z,96.71
2018-12-07T19:42:17.793Z,97.06
2018-12-07T19:44:51.551Z,97.36
2018-12-07T19:47:24.691Z,97.34
2018-12-07T19:49:59.978Z,97.31
2018-12-07T19:52:36.191Z,97.10
2018-12-07T19:55:11.208Z,96.70
2018-12-07T19:57:46.707Z,96.50
2018-12-07T20:00:24.573Z,96.48
2018-12-07T20:02:58.377Z,96.39
2018-12-07T20:05:32.007Z,96.24
2018-12-07T20:08:08.200Z,96.08
2018-12-07T20:10:45.792Z,96.14
2018-12-07T20:13:22.904Z,96.03
2018-12-07T20:16:01.172Z,95.71
2018-12-07T20:18:35.196Z,95.72
2018-12-07T20:21:09.743Z,95.80
2018-12-07T20:23:47.853Z,96.00
2018-12-07T20:26:23.437Z,96.01
2018-12-07T20:28:56.530Z,95.92
2018-12-07T20:31:30.515Z,95.65
2018-12-07T20:34:05.618Z,95.55
2018-12-07T20:36:38.819Z,95.61
2018-12-07T20:39:14.710Z,95.56
2018-12-07T20:41:49.049Z,95.72
2018-12-07T20:44:23.701Z,96.10
2018-12-07T20:46:59.186Z,96.10
2018-12-07T20:49:32.291Z,96.31
2018-12-07T20:52:06.609Z,96.39
2018-12-07T20:54:42.663Z,95.69
2018-12-07T20:57:16.005Z,95.58
2018-12-07T20:59:49.450Z,95.41
2018-12-07T21:02:24.335Z,95.32
2018-12-07T21:05:10.792Z,95.43
2018-12-07T21:08:12.462Z,95.84
2018-12-07T21:11:18.272Z,96.01
2018-12-07T21:14:43.264Z,96.87
2018-12-07T21:17:40.218Z,97.33
2018-12-07T21:20:27.093Z,97.79
2018-12-07T21:23:00.702Z,98.28
2018-12-07T21:25:37.248Z,98.74
2018-12-07T21:28:15.485Z,98.87
2018-12-07T21:31:02.008Z,98.90
2018-12-07T21:34:19.808Z,98.83
2018-12-07T21:36:54.788Z,98.78
2018-12-07T21:40:06.554Z,98.69
2018-12-07T21:42:40.052Z,98.44
2018-12-07T21:45:15.826Z,97.92
2018-12-07T21:48:24.420Z,96.81
2018-12-07T21:51:32.424Z,95.36
2018-12-07T21:54:17.049Z,94.07
2018-12-07T21:56:59.045Z,93.63
2018-12-07T21:59:32.982Z,93.64
2018-12-07T22:02:06.123Z,93.34
2018-12-07T22:04:40.871Z,92.47
2018-12-07T22:07:15.049Z,91.93
2018-12-07T22:09:51.084Z,91.58
2018-12-07T22:12:26.526Z,91.93
2018-12-07T22:15:05.073Z,92.30
2018-12-07T22:17:40.369Z,92.52
2018-12-07T22:20:13.682Z,92.66
2018-12-07T22:22:47.988Z,93.06
2018-12-07T22:25:28.443Z,93.33
2018-12-07T22:28:05.319Z,93.59
2018-12-07T22:30:38.737Z,93.73
2018-12-07T22:33:15.804Z,93.47
2018-12-07T22:35:49.938Z,93.10
2018-12-07T22:38:24.890Z,92.65
2018-12-07T22:41:10.304Z,92.30
2018-12-07T22:43:49.571Z,92.05
2018-12-07T22:46:22.821Z,91.83
2018-12-07T22:48:56.458Z,91.40
2018-12-07T22:51:30.694Z,91.50
2018-12-07T22:54:06.929Z,91.67
2018-12-07T22:56:40.070Z,91.41
2018-12-07T22:59:13.679Z,91.76
2018-12-07T23:01:46.878Z,92.06
2018-12-07T23:04:20.228Z,91.92
2018-12-07T23:06:53.384Z,91.90
2018-12-07T23:09:28.636Z,91.96
2018-12-07T23:12:05.204Z,91.95
2018-12-07T23:14:39.286Z,92.09
2018-12-07T23:17:12.502Z,92.31
2018-12-07T23:19:46.425Z,92.32
2018-12-07T23:22:21.776Z,92.59
2018-12-07T23:24:58.081Z,92.88
2018-12-07T23:27:32.283Z,92.93
2018-12-07T23:30:14.291Z,92.70
2018-12-07T23:32:48.249Z,92.48
2018-12-07T23:35:21.153Z,92.54
2018-12-07T23:37:54.750Z,92.45
2018-12-07T23:40:29.004Z,92.54
2018-12-07T23:43:02.284Z,92.42
2018-12-07T23:45:35.860Z,92.24
2018-12-07T23:48:09.408Z,91.94
2018-12-07T23:50:42.372Z,91.58
2018-12-07T23:53:17.508Z,91.34
2018-12-07T23:55:52.378Z,91.31
2018-12-07T23:58:25.423Z,91.41
